Time;durP1;ratioP1;P1;durP2;ratioP2;P2;SDS_P1;SDS_P2;PMS_P1;PMS_P2;Temp;Humidity;BMP_temperature;BMP_pressure;BME280_temperature;BME280_humidity;BME280_pressure;Samples;Min_cycle;Max_cycle;Signal;HPM_P1;HPM_P2
2024/03/01 06:42:28;;;;;;;8.95;5.75;;;;;;;;;;10581610;27;20413;-78
2024/03/01 06:47:33;;;;;;;10.30;5.72;;;;;;;;;;10594979;28;20077;-78
2024/03/01 06:52:34;;;;;;;10.98;6.30;;;;;;;;;;10579511;28;20336;-77
2024/03/01 06:57:35;;;;;;;9.45;6.45;;;;;;;;;;10578440;28;20102;-77
2024/03/01 07:02:36;;;;;;;8.23;5.22;;;;;;;;;;10577027;28;20476;-78
2024/03/01 07:07:37;;;;;;;8.95;5.82;;;;;;;;;;10578778;28;20095;-78
2024/03/01 07:12:38;;;;;;;;;;;;;;;;;;10586357;28;20024;-77
2024/03/01 07:17:40;;;;;;;6.72;5.28;;;;;;;;;;10587925;28;19904;-77
2024/03/01 07:22:41;;;;;;;4.32;3.53;;;;;;;;;;10588216;28;20047;-78
2024/03/01 07:27:42;;;;;;;8.32;6.28;;;;;;;;;;10578997;28;20116;-78
2024/03/01 07:32:43;;;;;;;4.80;4.10;;;;;;;;;;10579097;28;20081;-77
2024/03/01 07:37:44;;;;;;;3.65;2.95;;;;;;;;;;10600388;28;20028;-79
2024/03/01 07:42:45;;;;;;;5.20;4.35;;;;;;;;;;10585019;28;20462;-78
2024/03/01 07:47:46;;;;;;;;;;;;;;;;;;10589433;28;20134;-80
2024/03/01 07:52:47;;;;;;;7.57;6.60;;;;;;;;;;10559792;28;19962;-79
2024/03/01 07:57:49;;;;;;;5.32;4.68;;;;;;;;;;10554442;28;20092;-80
2024/03/01 08:02:56;;;;;;;3.63;2.40;;;;;;;;;;10557105;28;20189;-78
2024/03/01 08:07:57;;;;;;;6.30;3.17;;;;;;;;;;10561170;28;20023;-78
2024/03/01 08:12:58;;;;;;;;;;;;;;;;;;10568779;28;20151;-79
2024/03/01 08:17:59;;;;;;;3.75;2.95;;;;;;;;;;10557939;28;19904;-79
2024/03/01 08:23:00;;;;;;;;;;;;;;;;;;10563887;28;20487;-79
2024/03/01 08:28:01;;;;;;;4.68;2.78;;;;;;;;;;10565043;28;19927;-81
2024/03/01 08:33:02;;;;;;;2.78;2.13;;;;;;;;;;10558052;28;20107;-78
2024/03/01 08:38:04;;;;;;;3.40;1.80;;;;;;;;;;10562714;28;20124;-80
2024/03/01 08:43:06;;;;;;;6.00;2.05;;;;;;;;;;10555550;28;20017;-80
2024/03/01 08:48:12;;;;;;;4.20;2.30;;;;;;;;;;10553009;28;20064;-80
2024/03/01 08:53:29;;;;;;;4.10;2.60;;;;;;;;;;10559694;28;20020;-79
2024/03/01 08:58:30;;;;;;;3.85;2.92;;;;;;;;;;10560977;28;20032;-82
2024/03/01 09:03:32;;;;;;;4.70;3.33;;;;;;;;;;10563124;28;20080;-82
2024/03/01 09:08:36;;;;;;;3.88;3.20;;;;;;;;;;10556971;28;20028;-78
2024/03/01 09:13:37;;;;;;;4.43;3.55;;;;;;;;;;10555773;28;20089;-78
2024/03/01 09:18:51;;;;;;;6.05;4.18;;;;;;;;;;10555611;28;20031;-77
2024/03/01 09:23:52;;;;;;;4.55;2.92;;;;;;;;;;10559185;28;20456;-78
2024/03/01 09:28:53;;;;;;;;;;;;;;;;;;10561632;28;20066;-77
2024/03/01 09:33:54;;;;;;;3.25;2.63;;;;;;;;;;10550119;28;20338;-77
2024/03/01 09:38:55;;;;;;;;;;;;;;;;;;10547697;28;20407;-77
2024/03/01 09:44:07;;;;;;;3.58;3.10;;;;;;;;;;10549791;28;19912;-77
2024/03/01 09:49:20;;;;;;;4.25;2.83;;;;;;;;;;10550279;28;20115;-77
2024/03/01 09:54:29;;;;;;;3.65;2.58;;;;;;;;;;10565193;28;20039;-76
2024/03/01 09:59:37;;;;;;;3.45;2.40;;;;;;;;;;10551985;28;20028;-76
2024/03/01 10:04:57;;;;;;;4.40;2.00;;;;;;;;;;10547062;28;20024;-80
2024/03/01 10:10:04;;;;;;;3.15;2.65;;;;;;;;;;10544898;28;20031;-78
2024/03/01 10:15:12;;;;;;;3.80;2.35;;;;;;;;;;10544150;28;20031;-78
2024/03/01 10:20:39;;;;;;;2.47;1.80;;;;;;;;;;10542150;28;20077;-78
2024/03/01 10:25:43;;;;;;;4.20;2.70;;;;;;;;;;10546750;28;20016;-78
2024/03/01 10:30:55;;;;;;;2.50;1.85;;;;;;;;;;10534960;22;20058;-82
2024/03/01 10:36:14;;;;;;;2.95;2.38;;;;;;;;;;10510178;28;20035;-83
2024/03/01 10:41:18;;;;;;;2.00;1.40;;;;;;;;;;10510753;28;20123;-83
2024/03/01 10:46:25;;;;;;;2.97;1.83;;;;;;;;;;10509792;28;20021;-84
2024/03/01 10:51:30;;;;;;;2.78;1.95;;;;;;;;;;10507592;28;20214;-83
2024/03/01 10:56:32;;;;;;;2.33;1.48;;;;;;;;;;10508323;28;20025;-84
2024/03/01 11:01:42;;;;;;;2.53;1.88;;;;;;;;;;10506580;28;20377;-78
2024/03/01 11:07:01;;;;;;;2.08;1.40;;;;;;;;;;10506238;28;20020;-82
2024/03/01 11:12:13;;;;;;;2.80;2.10;;;;;;;;;;10509189;28;20033;-81
2024/03/01 11:17:15;;;;;;;3.97;2.22;;;;;;;;;;10505767;28;20502;-79
2024/03/01 11:22:24;;;;;;;3.03;2.30;;;;;;;;;;10503758;28;20441;-79
2024/03/01 11:27:28;;;;;;;2.70;1.90;;;;;;;;;;10508588;28;20476;-79
2024/03/01 11:32:30;;;;;;;3.58;2.47;;;;;;;;;;10510443;28;20441;-81
2024/03/01 11:37:34;;;;;;;3.42;1.85;;;;;;;;;;10512719;28;20471;-82
2024/03/01 11:42:41;;;;;;;2.90;2.60;;;;;;;;;;10515948;28;20531;-84
2024/03/01 11:47:49;;;;;;;2.75;1.30;;;;;;;;;;10524599;28;20116;-84
2024/03/01 11:52:52;;;;;;;2.53;1.45;;;;;;;;;;10516230;28;20029;-84
2024/03/01 11:58:19;;;;;;;1.63;1.13;;;;;;;;;;10515981;28;20028;-81
2024/03/01 12:03:40;;;;;;;2.22;1.33;;;;;;;;;;10508849;28;20108;-81
2024/03/01 12:08:51;;;;;;;2.10;1.20;;;;;;;;;;10513997;28;20074;-81
2024/03/01 12:13:57;;;;;;;2.13;1.90;;;;;;;;;;10521923;28;20024;-85
2024/03/01 12:19:19;;;;;;;4.82;2.40;;;;;;;;;;10548846;28;20154;-82
2024/03/01 12:24:21;;;;;;;1.63;1.05;;;;;;;;;;10526719;28;20063;-83
2024/03/01 12:29:23;;;;;;;1.40;0.98;;;;;;;;;;10519546;28;20036;-83
2024/03/01 12:34:42;;;;;;;3.90;1.38;;;;;;;;;;10517173;28;20086;-83
2024/03/01 12:39:46;;;;;;;3.70;1.10;;;;;;;;;;10518107;28;20119;-84
2024/03/01 12:45:13;;;;;;;1.60;0.70;;;;;;;;;;10525217;28;20028;-84
2024/03/01 12:50:23;;;;;;;2.03;1.10;;;;;;;;;;10521161;28;20038;-84
2024/03/01 12:55:32;;;;;;;2.50;1.00;;;;;;;;;;10515731;28;20097;-79
2024/03/01 13:00:38;;;;;;;1.33;0.73;;;;;;;;;;10507692;28;20052;-79
2024/03/01 13:05:41;;;;;;;1.85;0.57;;;;;;;;;;10507962;28;20036;-79
2024/03/01 13:10:44;;;;;;;1.63;0.70;;;;;;;;;;10511311;28;20488;-78
2024/03/01 13:15:48;;;;;;;1.35;0.70;;;;;;;;;;10506257;28;20024;-79
2024/03/01 13:21:02;;;;;;;1.85;0.70;;;;;;;;;;10505913;28;20035;-80
2024/03/01 13:26:22;;;;;;;1.00;0.60;;;;;;;;;;10508733;28;20017;-84
2024/03/01 13:31:25;;;;;;;3.80;1.10;;;;;;;;;;10508472;28;20029;-84
2024/03/01 13:36:35;;;;;;;3.97;1.70;;;;;;;;;;10520566;28;20036;-83
2024/03/01 13:41:38;;;;;;;4.00;1.58;;;;;;;;;;10547670;28;20043;-85
2024/03/01 13:46:40;;;;;;;2.25;1.60;;;;;;;;;;10521878;28;20024;-86
2024/03/01 13:52:14;;;;;;;1.63;1.10;;;;;;;;;;10512035;28;20082;-86
2024/03/01 13:57:52;;;;;;;1.80;1.30;;;;;;;;;;10503604;28;20047;-87
2024/03/01 14:02:55;;;;;;;1.30;1.00;;;;;;;;;;10510656;28;20044;-86
2024/03/01 14:08:02;;;;;;;1.42;1.05;;;;;;;;;;10509765;28;20025;-86
2024/03/01 14:13:03;;;;;;;1.52;0.70;;;;;;;;;;10516762;28;20032;-86
2024/03/01 14:18:10;;;;;;;1.90;0.77;;;;;;;;;;10515919;28;20032;-86
2024/03/01 14:23:51;;;;;;;1.38;0.70;;;;;;;;;;10496870;28;20035;-86
2024/03/01 14:28:52;;;;;;;;;;;;;;;;;;10508167;28;20135;-80
2024/03/01 14:34:01;;;;;;;1.77;0.80;;;;;;;;;;10509808;28;19918;-80
2024/03/01 14:39:02;;;;;;;2.83;0.82;;;;;;;;;;10505604;28;20032;-81
2024/03/01 14:44:04;;;;;;;1.98;0.73;;;;;;;;;;10508708;28;20096;-81
2024/03/01 14:49:15;;;;;;;2.13;0.88;;;;;;;;;;10514413;28;20036;-85
2024/03/01 14:54:31;;;;;;;1.92;0.90;;;;;;;;;;10509785;28;20028;-82
2024/03/01 14:59:46;;;;;;;2.05;0.88;;;;;;;;;;10502949;28;20029;-82
2024/03/01 15:10:35;;;;;;;1.80;0.73;;;;;;;;;;10435345;28;20029;-82
2024/03/01 15:15:46;;;;;;;2.30;0.88;;;;;;;;;;10542063;28;20029;-84
2024/03/01 15:20:48;;;;;;;1.65;0.75;;;;;;;;;;10523266;28;20024;-84
2024/03/01 15:25:49;;;;;;;2.67;0.90;;;;;;;;;;10517422;28;20025;-80
2024/03/01 15:30:50;;;;;;;1.10;0.80;;;;;;;;;;10516148;28;20116;-83
2024/03/01 15:35:51;;;;;;;1.55;0.98;;;;;;;;;;10521840;28;20033;-83
2024/03/01 15:40:58;;;;;;;;;;;;;;;;;;10522247;28;20029;-83
2024/03/01 15:46:00;;;;;;;1.98;0.95;;;;;;;;;;10522827;28;19905;-83
2024/03/01 15:51:01;;;;;;;1.80;0.82;;;;;;;;;;10524546;28;20024;-84
2024/03/01 15:56:07;;;;;;;;;;;;;;;;;;10517577;28;20035;-84
2024/03/01 16:01:08;;;;;;;4.78;1.25;;;;;;;;;;10517295;28;20281;-80
2024/03/01 16:06:09;;;;;;;;;;;;;;;;;;10514417;28;20025;-85
2024/03/01 16:11:11;;;;;;;4.28;0.82;;;;;;;;;;10511563;28;19904;-80
2024/03/01 16:16:12;;;;;;;2.08;1.27;;;;;;;;;;10515281;28;20048;-86
2024/03/01 16:21:17;;;;;;;2.63;1.20;;;;;;;;;;10520710;28;20089;-84
2024/03/01 16:26:19;;;;;;;3.60;1.20;;;;;;;;;;10516731;28;20028;-84
2024/03/01 16:54:29;;;;;;;2.33;1.00;;;;;;;;;;10515599;28;20054;-85
2024/03/01 17:00:17;;;;;;;2.47;1.13;;;;;;;;;;10548782;28;20024;-87
2024/03/01 17:05:40;;;;;;;4.68;1.67;;;;;;;;;;10546179;28;20036;-83
2024/03/01 17:11:21;;;;;;;5.30;2.78;;;;;;;;;;10380424;28;20064;-88
2024/03/01 17:16:23;;;;;;;2.45;1.15;;;;;;;;;;10387953;28;20046;-85
2024/03/01 17:21:36;;;;;;;3.25;1.38;;;;;;;;;;10380215;28;20093;-83
2024/03/01 17:26:40;;;;;;;2.70;1.13;;;;;;;;;;10381507;28;20072;-85
2024/03/01 17:31:41;;;;;;;;;;;;;;;;;;10408233;28;20071;-82
2024/03/01 17:36:48;;;;;;;1.88;1.17;;;;;;;;;;10519901;28;19915;-84
2024/03/01 17:41:49;;;;;;;4.00;1.80;;;;;;;;;;10516804;28;20492;-84
2024/03/01 17:46:50;;;;;;;4.78;1.67;;;;;;;;;;10515944;28;20024;-83
2024/03/01 17:51:51;;;;;;;3.65;1.98;;;;;;;;;;10526721;28;20035;-85
2024/03/01 17:56:52;;;;;;;10.05;2.13;;;;;;;;;;10521295;28;20044;-84
2024/03/01 18:01:53;;;;;;;3.67;1.85;;;;;;;;;;10509915;28;20040;-86
2024/03/01 18:06:54;;;;;;;3.55;1.83;;;;;;;;;;10506126;28;20025;-82
2024/03/01 18:11:58;;;;;;;2.63;1.65;;;;;;;;;;10504001;28;20115;-84
2024/03/01 18:17:23;;;;;;;6.60;4.13;;;;;;;;;;10506693;28;20048;-83
2024/03/01 18:22:26;;;;;;;4.22;2.22;;;;;;;;;;10505538;28;20021;-84
2024/03/01 18:27:28;;;;;;;2.75;1.88;;;;;;;;;;10504350;28;20032;-84
2024/03/01 18:32:29;;;;;;;2.63;1.80;;;;;;;;;;10504663;28;20036;-83
2024/03/01 18:37:30;;;;;;;9.38;6.10;;;;;;;;;;10505352;28;20048;-84
2024/03/01 18:42:31;;;;;;;3.60;2.38;;;;;;;;;;10509262;28;20127;-83
2024/03/01 18:47:37;;;;;;;3.67;1.80;;;;;;;;;;10510311;28;20114;-82
2024/03/01 18:52:39;;;;;;;3.45;2.10;;;;;;;;;;10511378;28;20051;-84
2024/03/01 18:57:45;;;;;;;3.60;1.70;;;;;;;;;;10532742;28;20005;-83
2024/03/01 19:02:57;;;;;;;3.25;1.50;;;;;;;;;;10515236;28;20054;-84
2024/03/01 19:07:58;;;;;;;3.83;1.98;;;;;;;;;;10517623;28;20028;-84
2024/03/01 19:13:01;;;;;;;3.22;1.85;;;;;;;;;;10517586;28;20033;-83
2024/03/01 19:18:02;;;;;;;5.40;1.63;;;;;;;;;;10513530;28;20024;-84
2024/03/01 19:23:04;;;;;;;2.72;1.85;;;;;;;;;;10514490;28;20054;-84
2024/03/01 19:28:05;;;;;;;3.30;1.80;;;;;;;;;;10512125;28;20044;-84
2024/03/01 19:33:07;;;;;;;3.40;2.00;;;;;;;;;;10516275;28;20067;-83
2024/03/01 19:38:08;;;;;;;4.25;2.00;;;;;;;;;;10518433;28;20021;-83
2024/03/01 19:43:09;;;;;;;2.60;1.70;;;;;;;;;;10517086;28;20108;-83
2024/03/01 19:48:10;;;;;;;2.45;1.63;;;;;;;;;;10538992;28;20492;-84
2024/03/01 19:53:12;;;;;;;2.80;1.70;;;;;;;;;;10523310;28;20027;-84
2024/03/01 19:58:13;;;;;;;3.03;1.73;;;;;;;;;;10520036;28;20620;-84
2024/03/01 20:03:15;;;;;;;2.80;1.65;;;;;;;;;;10521496;28;20055;-83
